Latest Weather Observations for Neptune Island

IDS60801

Issued at 4:41 pm CST Sunday 11 April 2021 (issued every 10 minutes, with the page automatically refreshed every 10 minutes)

About weather observations | Map of weather stations | Latest weather observations for SA | Other Formats
Station Details ID: 018115 Name: NEPTUNE ISLAND Lat: -35.34 Lon: 136.12 Height: 32.0 m
Data from the previous 72 hours. | See also: Recent months at Neptune Island
Date/Time
CST
Temp
°C
App
Temp
°C
Dew
Point
°C
Rel
Hum
%
Delta-T
°C
Wind Press
QNH
hPa
Press
MSL
hPa
Rain since
9am
mm
Dir  Spd
km/h
Gust
km/h
Spd
kts
Gust
kts
11/04:30pm 16.7 - - - - SSE 24 32 13 17 1024.4 1024.3 0.0
11/04:00pm 17.3 - - - - SE 22 28 12 15 1024.3 1024.2 0.0
11/03:30pm 17.1 - - - - SSE 19 24 10 13 1024.3 1024.2 0.0
11/03:00pm 17.2 - - - - SSE 22 30 12 16 1024.4 1024.3 0.0
11/02:30pm 17.0 - - - - S 28 35 15 19 1024.6 1024.5 0.0
11/02:00pm 16.7 - - - - SSE 24 32 13 17 1024.8 1024.7 0.0
11/01:30pm 16.6 - - - - SSE 28 35 15 19 1025.0 1024.9 0.0
11/01:00pm 16.9 - - - - SSE 24 32 13 17 1025.1 1025.0 0.0
11/12:30pm 16.3 - - - - SSE 28 35 15 19 1025.3 1025.2 0.0
11/12:00pm 16.2 - - - - S 30 37 16 20 1025.5 1025.4 0.0
11/11:30am 15.9 - - - - SE 24 32 13 17 1025.5 1025.4 0.0
11/11:00am 16.4 - - - - SSE 28 39 15 21 1025.4 1025.3 0.0
11/10:30am 15.9 - - - - S 24 33 13 18 1025.4 1025.3 0.0
11/10:00am 15.9 - - - - SSE 22 30 12 16 1025.5 1025.4 0.0
11/09:30am 16.2 - - - - SSE 33 43 18 23 1025.5 1025.4 0.0
11/09:00am 15.5 - - - - S 39 48 21 26 1025.1 1025.0 0.4
11/08:30am 15.4 - - - - S 35 46 19 25 1024.9 1024.8 0.4
11/08:00am 15.3 - - - - S 39 50 21 27 1024.4 1024.3 0.4
11/07:30am 15.2 - - - - S 37 46 20 25 1024.1 1024.0 0.4
11/07:00am 15.1 - - - - S 35 46 19 25 1023.7 1023.6 0.4
11/06:30am 15.3 - - - - S 37 46 20 25 1023.5 1023.4 0.4
11/06:00am 15.2 - - - - S 44 57 24 31 1023.2 1023.1 0.4
11/05:30am 14.9 - - - - S 43 52 23 28 1022.8 1022.7 0.4
11/05:00am 15.5 - - - - S 37 48 20 26 1022.6 1022.5 0.4
11/04:30am 15.4 - - - - S 39 54 21 29 1022.5 1022.4 0.4
11/04:13am 15.5 - - - - S 41 61 22 33 1022.2 1022.1 0.4
11/04:00am 15.5 - - - - S 37 54 20 29 1022.1 1022.0 0.4
11/03:30am 14.5 - - - - S 46 57 25 31 1022.1 1022.0 0.4
11/03:08am 15.1 - - - - SSW 43 61 23 33 1021.8 1021.7 0.2
11/03:00am 15.6 - - - - SSW 39 48 21 26 1022.0 1021.9 0.2
11/02:30am 15.4 - - - - S 43 57 23 31 1021.9 1021.8 0.2
11/02:16am 15.4 - - - - S 35 54 19 29 1021.9 1021.8 0.2
11/02:00am 14.9 - - - - S 35 44 19 24 1022.2 1022.1 0.2
11/01:57am 14.4 - - - - S 39 57 21 31 1022.2 1022.1 0.2
11/01:30am 15.2 - - - - SSW 43 54 23 29 1021.9 1021.8 0.2
11/01:00am 15.2 - - - - SSW 37 46 20 25 1022.0 1021.9 0.2
11/12:30am 15.2 - - - - SSW 43 54 23 29 1021.9 1021.8 0.2
11/12:00am 15.4 - - - - S 39 48 21 26 1022.0 1021.9 0.0
 
Date/Time
CST
Temp
°C
App
Temp
°C
Dew
Point
°C
Rel
Hum
%
Delta-T
°C
Wind Press
QNH
hPa
Press
MSL
hPa
Rain since
9am
mm
Dir  Spd
km/h
Gust
km/h
Spd
kts
Gust
kts
10/11:30pm 15.3 - - - - SSW 44 54 24 29 1022.0 1021.9 0.0
10/11:00pm 15.7 - - - - S 46 57 25 31 1021.9 1021.8 0.0
10/10:30pm 15.9 - - - - SSW 43 52 23 28 1021.7 1021.6 0.0
10/10:00pm 15.6 - - - - SSW 39 50 21 27 1021.6 1021.5 0.0
10/09:30pm 15.1 - - - - S 44 54 24 29 1021.6 1021.5 0.0
10/09:02pm 15.8 - - - - SSW 46 65 25 35 1021.1 1021.0 0.0
10/09:00pm 16.0 - - - - SSW 44 57 24 31 1021.2 1021.1 0.0
10/08:30pm 15.9 - - - - SSW 48 63 26 34 1020.9 1020.8 0.0
10/08:00pm 15.9 - - - - SSW 43 52 23 28 1020.8 1020.7 0.0
10/07:43pm 16.2 - - - - SSW 39 57 21 31 1020.7 1020.6 0.0
10/07:30pm 16.2 - - - - SSW 41 52 22 28 1020.6 1020.5 0.0
10/07:00pm 15.9 - - - - SSW 41 54 22 29 1020.2 1020.1 0.0
10/06:30pm 15.9 - - - - SSW 46 56 25 30 1019.7 1019.6 0.0
10/06:00pm 16.2 - - - - SSW 41 50 22 27 1019.5 1019.4 0.0
10/05:30pm 16.3 - - - - SSW 43 56 23 30 1019.2 1019.1 0.0
10/05:00pm 16.5 - - - - SSW 41 52 22 28 1018.9 1018.8 0.0
10/04:30pm 16.8 - - - - SSW 44 56 24 30 1018.8 1018.7 0.0
10/04:00pm 16.9 - - - - SSW 44 54 24 29 1018.8 1018.7 0.0
10/03:30pm 16.6 - - - - SSW 43 57 23 31 1018.6 1018.5 0.0
10/03:00pm 17.3 - - - - SSW 43 52 23 28 1018.5 1018.4 0.0
10/02:47pm 17.9 - - - - SSW 43 61 23 33 1018.5 1018.4 0.0
10/02:30pm 17.1 - - - - SSW 50 61 27 33 1018.2 1018.1 0.0
10/02:00pm 17.2 - - - - SSW 43 54 23 29 1018.2 1018.1 0.0
10/01:30pm 17.3 - - - - SSW 43 52 23 28 1018.3 1018.2 0.0
10/01:00pm 17.5 - - - - SSW 43 57 23 31 1018.2 1018.1 0.0
10/12:30pm 17.6 - - - - SSW 41 50 22 27 1018.3 1018.2 0.0
10/12:00pm 18.5 - - - - SSW 43 52 23 28 1018.3 1018.2 0.0
10/11:30am 17.5 - - - - SSW 43 52 23 28 1018.2 1018.1 0.0
10/11:00am 17.4 - - - - SSW 44 54 24 29 1018.0 1017.9 0.0
10/10:30am 16.6 - - - - SSW 48 57 26 31 1017.7 1017.6 0.0
10/10:00am 16.8 - - - - SSW 48 59 26 32 1017.5 1017.4 0.0
10/09:30am 16.7 - - - - S 44 52 24 28 1017.2 1017.1 0.0
10/09:00am 15.6 - - - - SSW 41 54 22 29 1016.9 1016.8 0.2
10/08:30am 15.9 - - - - SSW 39 48 21 26 1016.8 1016.7 0.2
10/08:00am 15.9 - - - - SSW 44 52 24 28 1016.4 1016.3 0.2
10/07:30am 16.4 - - - - SW 46 65 25 35 1015.9 1015.8 0.0
10/07:00am 16.6 - - - - SW 43 54 23 29 1015.5 1015.4 0.0
10/06:30am 16.5 - - - - SW 37 44 20 24 1015.5 1015.4 0.0
10/06:04am 16.4 - - - - SW 43 65 23 35 1015.1 1015.1 0.0
10/06:00am 16.8 - - - - SW 39 48 21 26 1015.1 1015.1 0.0
10/05:30am 16.6 - - - - SW 46 54 25 29 1014.7 1014.7 0.0
10/05:00am 16.9 - - - - SW 39 48 21 26 1014.3 1014.3 0.0
10/04:30am 16.9 - - - - SW 39 46 21 25 1014.2 1014.2 0.0
10/04:00am 16.9 - - - - SW 43 52 23 28 1014.1 1014.1 0.0
10/03:30am 16.7 - - - - SW 46 56 25 30 1014.0 1014.0 0.0
10/03:00am 16.4 - - - - WSW 43 50 23 27 1014.3 1014.3 0.0
10/02:30am 16.5 - - - - SW 48 57 26 31 1014.2 1014.2 0.0
10/02:00am 16.5 - - - - SW 46 56 25 30 1014.5 1014.5 0.0
10/01:30am 16.3 - - - - SW 41 48 22 26 1014.7 1014.7 0.0
10/01:00am 16.3 - - - - SW 39 46 21 25 1014.6 1014.6 0.0
10/12:30am 16.0 - - - - SW 37 44 20 24 1014.6 1014.6 0.0
10/12:09am 16.8 - - - - SW 37 56 20 30 1014.5 1014.5 0.0
10/12:00am 16.3 - - - - SW 35 43 19 23 1014.8 1014.8 0.0
 
Date/Time
CST
Temp
°C
App
Temp
°C
Dew
Point
°C
Rel
Hum
%
Delta-T
°C
Wind Press
QNH
hPa
Press
MSL
hPa
Rain since
9am
mm
Dir  Spd
km/h
Gust
km/h
Spd
kts
Gust
kts
09/11:30pm 16.0 - - - - SW 35 39 19 21 1014.9 1014.9 0.0
09/11:00pm 16.5 - - - - SW 37 48 20 26 1015.2 1015.2 0.0
09/10:30pm 16.6 - - - - SW 43 50 23 27 1015.2 1015.2 0.0
09/10:00pm 16.7 - - - - SW 33 41 18 22 1015.3 1015.3 0.0
09/09:30pm 16.6 - - - - SW 41 50 22 27 1015.3 1015.3 0.0
09/09:00pm 16.2 - - - - SW 39 44 21 24 1015.3 1015.3 0.0
09/08:30pm 17.1 - - - - SW 32 41 17 22 1015.0 1015.0 0.0
09/08:00pm 16.8 - - - - SW 32 39 17 21 1015.0 1015.0 0.0
09/07:30pm 16.9 - - - - SW 30 37 16 20 1014.8 1014.8 0.0
09/07:00pm 17.0 - - - - SW 33 41 18 22 1014.4 1014.4 0.0
09/06:30pm 16.8 - - - - SW 33 44 18 24 1014.1 1014.1 0.0
09/06:00pm 16.8 - - - - SW 32 39 17 21 1014.1 1014.1 0.0
09/05:30pm 17.0 - - - - SW 32 41 17 22 1013.9 1013.9 0.0
09/05:00pm 17.0 - - - - SSW 32 39 17 21 1013.9 1013.9 0.0
09/04:30pm 17.2 - - - - SSW 30 35 16 19 1013.9 1013.9 0.0
09/04:00pm 17.7 - - - - SSW 30 35 16 19 1013.9 1013.9 0.0
09/03:30pm 17.6 - - - - SSW 30 39 16 21 1013.9 1013.9 0.0
09/03:00pm 17.7 - - - - SSW 30 35 16 19 1013.8 1013.8 0.0
09/02:30pm 18.0 - - - - SSW 28 33 15 18 1013.9 1013.9 0.0
09/02:00pm 18.0 - - - - SSW 28 35 15 19 1014.1 1014.1 0.0
09/01:30pm 17.5 - - - - SSW 24 32 13 17 1014.5 1014.5 0.0
09/01:00pm 18.2 - - - - SSW 20 30 11 16 1014.7 1014.7 0.0
09/12:30pm 18.4 - - - - SSW 20 26 11 14 1015.1 1015.1 0.0
09/12:00pm 17.9 - - - - S 17 20 9 11 1015.3 1015.3 0.0
09/11:30am 18.5 - - - - SSW 20 28 11 15 1015.3 1015.3 0.0
09/11:00am 17.9 - - - - S 24 32 13 17 1015.2 1015.2 0.0
09/10:30am 17.2 - - - - SSW 32 39 17 21 1015.0 1015.0 0.0
09/10:00am 17.9 - - - - S 26 32 14 17 1015.1 1015.1 0.0
09/09:30am 17.5 - - - - S 28 33 15 18 1015.0 1015.0 0.0
09/09:00am 16.7 - - - - S 30 35 16 19 1015.0 1015.0 0.2
09/08:30am 16.9 - - - - SSW 20 28 11 15 1015.2 1015.2 0.2
09/08:00am 16.4 - - - - SSW 24 33 13 18 1014.9 1014.9 0.2
09/07:30am 16.3 - - - - S 32 37 17 20 1014.2 1014.2 0.2
09/07:00am 16.3 - - - - S 30 39 16 21 1013.8 1013.8 0.2
09/06:30am 16.2 - - - - S 33 43 18 23 1013.6 1013.6 0.2
09/06:00am 16.3 - - - - S 32 37 17 20 1013.0 1013.0 0.2
09/05:30am 16.4 - - - - S 28 32 15 17 1013.0 1013.0 0.2
09/05:00am 16.4 - - - - S 28 35 15 19 1012.8 1012.8 0.2
09/04:30am 16.4 - - - - SSE 32 43 17 23 1012.0 1012.0 0.2
09/04:00am 16.6 - - - - SSE 33 43 18 23 1012.1 1012.1 0.2
09/03:30am 16.8 - - - - S 39 48 21 26 1012.3 1012.3 0.2
09/03:00am 16.8 - - - - S 33 43 18 23 1012.4 1012.4 0.2
09/02:30am 16.9 - - - - S 35 43 19 23 1012.4 1012.4 0.2
09/02:00am 17.1 - - - - S 43 48 23 26 1012.3 1012.3 0.2
09/01:30am 17.0 - - - - S 43 50 23 27 1012.5 1012.5 0.2
09/01:00am 16.9 - - - - S 41 50 22 27 1012.1 1012.1 0.2
09/12:30am 17.1 - - - - S 41 46 22 25 1012.4 1012.4 0.2
09/12:00am 17.2 - - - - SSE 37 44 20 24 1011.9 1011.9 0.2
 
Date/Time
CST
Temp
°C
App
Temp
°C
Dew
Point
°C
Rel
Hum
%
Delta-T
°C
Wind Press
QNH
hPa
Press
MSL
hPa
Rain since
9am
mm
Dir  Spd
km/h
Gust
km/h
Spd
kts
Gust
kts
08/11:30pm 16.8 - - - - S 44 54 24 29 1012.4 1012.4 0.2
08/11:00pm 17.2 - - - - S 39 46 21 25 1011.2 1011.2 0.2
08/10:30pm 17.2 - - - - S 37 43 20 23 1012.0 1012.0 0.2
08/10:00pm 17.0 - - - - S 44 52 24 28 1011.6 1011.6 0.0
08/09:30pm 17.0 - - - - S 43 50 23 27 1011.4 1011.4 0.0
08/09:00pm 18.2 - - - - SSW 33 43 18 23 1011.1 1011.1 0.0
08/08:30pm 18.3 - - - - SSW 41 48 22 26 1011.2 1011.2 0.0
08/08:00pm 18.3 - - - - SSW 43 50 23 27 1010.5 1010.5 0.0
08/07:30pm 18.5 - - - - S 39 50 21 27 1010.0 1010.0 0.0
08/07:00pm 18.6 - - - - S 32 41 17 22 1009.3 1009.3 0.0
08/06:30pm 18.9 - - - - S 35 44 19 24 1008.9 1008.9 0.0
08/06:00pm 19.1 - - - - SSW 30 37 16 20 1009.0 1009.0 0.0
08/05:30pm 19.1 - - - - SE 15 20 8 11 1007.4 1007.4 0.0
08/05:00pm 19.0 - - - - SSE 20 24 11 13 1007.4 1007.4 0.0

Other formats

Comma delimited format used in spreadsheet applications
http://www.bom.gov.au/fwo/IDS60801/IDS60801.94804.axf

JavaScript Object Notation format (JSON) in row-major order
http://www.bom.gov.au/fwo/IDS60801/IDS60801.94804.json

Data quality

Most of these data are generated automatically and are frequently updated. Quality checks on data are not normally performed. It is possible for incorrect values to appear. Refer to information at About Latest Weather Observations and please check the disclaimer before using these data.